sensor_id;sensor_type;location;lat;lon;timestamp;pressure;altitude;pressure_sealevel;temperature;humidity
32083;BME280;18597;48.328;7.932;2022-08-24T00:01:26;99519.50;;;16.88;91.76
32083;BME280;18597;48.328;7.932;2022-08-24T00:03:54;99522.19;;;16.88;92.36
32083;BME280;18597;48.328;7.932;2022-08-24T00:06:24;99525.25;;;16.77;92.90
32083;BME280;18597;48.328;7.932;2022-08-24T00:08:52;99527.00;;;16.70;93.61
32083;BME280;18597;48.328;7.932;2022-08-24T00:11:20;99527.66;;;16.72;93.12
32083;BME280;18597;48.328;7.932;2022-08-24T00:13:47;99526.25;;;16.68;93.59
32083;BME280;18597;48.328;7.932;2022-08-24T00:16:15;99533.88;;;16.64;93.93
32083;BME280;18597;48.328;7.932;2022-08-24T00:18:42;99539.78;;;16.60;93.70
32083;BME280;18597;48.328;7.932;2022-08-24T00:21:08;99541.13;;;16.64;93.28
32083;BME280;18597;48.328;7.932;2022-08-24T00:23:35;99533.75;;;16.42;94.48
32083;BME280;18597;48.328;7.932;2022-08-24T00:26:01;99534.59;;;16.34;95.13
32083;BME280;18597;48.328;7.932;2022-08-24T00:28:29;99535.63;;;16.25;95.98
32083;BME280;18597;48.328;7.932;2022-08-24T00:30:55;99539.84;;;16.19;96.49
32083;BME280;18597;48.328;7.932;2022-08-24T00:33:20;99532.44;;;16.05;96.92
32083;BME280;18597;48.328;7.932;2022-08-24T00:35:46;99536.13;;;16.04;97.59
32083;BME280;18597;48.328;7.932;2022-08-24T00:38:12;99542.69;;;15.93;98.09
32083;BME280;18597;48.328;7.932;2022-08-24T00:40:44;99532.78;;;16.10;96.68
32083;BME280;18597;48.328;7.932;2022-08-24T00:43:10;99538.66;;;16.05;96.22
32083;BME280;18597;48.328;7.932;2022-08-24T00:45:44;99533.59;;;15.94;97.19
32083;BME280;18597;48.328;7.932;2022-08-24T00:48:19;99542.19;;;15.90;97.57
32083;BME280;18597;48.328;7.932;2022-08-24T00:53:30;99537.16;;;16.03;96.10
32083;BME280;18597;48.328;7.932;2022-08-24T00:56:03;99548.91;;;15.94;97.00
32083;BME280;18597;48.328;7.932;2022-08-24T00:58:36;99546.56;;;15.82;97.90
32083;BME280;18597;48.328;7.932;2022-08-24T01:01:06;99549.75;;;15.78;98.01
32083;BME280;18597;48.328;7.932;2022-08-24T01:03:35;99553.97;;;15.80;97.26
32083;BME280;18597;48.328;7.932;2022-08-24T01:06:03;99554.94;;;15.71;97.67
32083;BME280;18597;48.328;7.932;2022-08-24T01:08:29;99560.69;;;15.76;97.80
32083;BME280;18597;48.328;7.932;2022-08-24T01:11:01;99554.00;;;15.97;96.05
32083;BME280;18597;48.328;7.932;2022-08-24T01:13:29;99551.63;;;16.18;94.07
32083;BME280;18597;48.328;7.932;2022-08-24T01:16:01;99550.94;;;16.16;93.96
32083;BME280;18597;48.328;7.932;2022-08-24T01:18:27;99548.06;;;16.01;94.58
32083;BME280;18597;48.328;7.932;2022-08-24T01:21:37;99544.22;;;15.79;96.15
32083;BME280;18597;48.328;7.932;2022-08-24T01:24:10;99549.56;;;15.71;97.25
32083;BME280;18597;48.328;7.932;2022-08-24T01:26:44;99553.28;;;15.70;97.07
32083;BME280;18597;48.328;7.932;2022-08-24T01:29:17;99551.94;;;15.66;97.90
32083;BME280;18597;48.328;7.932;2022-08-24T01:31:44;99547.25;;;15.93;95.46
32083;BME280;18597;48.328;7.932;2022-08-24T01:34:10;99552.13;;;16.05;93.48
32083;BME280;18597;48.328;7.932;2022-08-24T01:36:44;99541.19;;;16.15;92.51
32083;BME280;18597;48.328;7.932;2022-08-24T01:39:31;99542.53;;;16.27;90.58
32083;BME280;18597;48.328;7.932;2022-08-24T01:41:58;99541.50;;;16.36;89.97
32083;BME280;18597;48.328;7.932;2022-08-24T01:44:28;99543.34;;;16.36;89.01
32083;BME280;18597;48.328;7.932;2022-08-24T01:46:55;99539.16;;;16.09;91.00
32083;BME280;18597;48.328;7.932;2022-08-24T01:49:27;99545.91;;;15.97;93.42
32083;BME280;18597;48.328;7.932;2022-08-24T01:51:54;99550.56;;;15.70;95.82
32083;BME280;18597;48.328;7.932;2022-08-24T01:54:19;99547.88;;;15.62;97.14
32083;BME280;18597;48.328;7.932;2022-08-24T01:56:46;99547.81;;;15.46;98.57
32083;BME280;18597;48.328;7.932;2022-08-24T01:59:12;99546.78;;;15.39;99.85
32083;BME280;18597;48.328;7.932;2022-08-24T02:01:43;99553.66;;;15.33;100.00
32083;BME280;18597;48.328;7.932;2022-08-24T02:04:11;99555.31;;;15.26;100.00
32083;BME280;18597;48.328;7.932;2022-08-24T02:06:38;99549.50;;;15.55;97.75
32083;BME280;18597;48.328;7.932;2022-08-24T02:09:05;99546.81;;;15.55;96.95
32083;BME280;18597;48.328;7.932;2022-08-24T02:11:32;99561.81;;;15.58;96.93
32083;BME280;18597;48.328;7.932;2022-08-24T02:13:58;99561.47;;;15.52;97.43
32083;BME280;18597;48.328;7.932;2022-08-24T02:16:25;99560.81;;;15.59;96.32
32083;BME280;18597;48.328;7.932;2022-08-24T02:18:52;99562.03;;;15.64;95.16
32083;BME280;18597;48.328;7.932;2022-08-24T02:21:17;99560.84;;;15.67;94.49
32083;BME280;18597;48.328;7.932;2022-08-24T02:23:43;99557.66;;;15.71;93.80
32083;BME280;18597;48.328;7.932;2022-08-24T02:26:10;99561.22;;;15.80;92.06
32083;BME280;18597;48.328;7.932;2022-08-24T02:28:38;99563.41;;;15.93;91.06
32083;BME280;18597;48.328;7.932;2022-08-24T02:31:10;99565.59;;;15.89;90.68
32083;BME280;18597;48.328;7.932;2022-08-24T02:33:37;99567.63;;;15.95;90.20
32083;BME280;18597;48.328;7.932;2022-08-24T02:36:05;99570.47;;;15.94;90.77
32083;BME280;18597;48.328;7.932;2022-08-24T02:38:32;99564.59;;;15.90;91.25
32083;BME280;18597;48.328;7.932;2022-08-24T02:40:58;99560.22;;;15.81;91.89
32083;BME280;18597;48.328;7.932;2022-08-24T02:43:24;99563.38;;;15.76;92.58
32083;BME280;18597;48.328;7.932;2022-08-24T02:45:51;99561.03;;;15.81;92.40
32083;BME280;18597;48.328;7.932;2022-08-24T02:48:17;99563.53;;;15.67;93.14
32083;BME280;18597;48.328;7.932;2022-08-24T02:50:46;99559.66;;;15.69;93.24
32083;BME280;18597;48.328;7.932;2022-08-24T02:53:15;99570.13;;;15.64;93.47
32083;BME280;18597;48.328;7.932;2022-08-24T02:55:43;99564.50;;;15.58;93.14
32083;BME280;18597;48.328;7.932;2022-08-24T02:58:11;99569.06;;;15.57;92.41
32083;BME280;18597;48.328;7.932;2022-08-24T03:00:39;99563.47;;;15.50;92.79
32083;BME280;18597;48.328;7.932;2022-08-24T03:03:06;99562.44;;;15.43;94.28
32083;BME280;18597;48.328;7.932;2022-08-24T03:05:34;99569.81;;;15.41;94.89
32083;BME280;18597;48.328;7.932;2022-08-24T03:08:00;99560.78;;;15.50;95.56
32083;BME280;18597;48.328;7.932;2022-08-24T03:10:26;99565.16;;;15.51;95.03
32083;BME280;18597;48.328;7.932;2022-08-24T03:12:52;99565.34;;;15.50;94.81
32083;BME280;18597;48.328;7.932;2022-08-24T03:15:20;99562.44;;;15.35;95.84
32083;BME280;18597;48.328;7.932;2022-08-24T03:17:48;99565.81;;;15.45;94.77
32083;BME280;18597;48.328;7.932;2022-08-24T03:20:21;99570.47;;;15.27;95.70
32083;BME280;18597;48.328;7.932;2022-08-24T03:22:47;99564.06;;;15.20;96.28
32083;BME280;18597;48.328;7.932;2022-08-24T03:25:16;99556.81;;;15.12;96.95
32083;BME280;18597;48.328;7.932;2022-08-24T03:27:42;99555.41;;;15.08;97.44
32083;BME280;18597;48.328;7.932;2022-08-24T03:30:11;99560.44;;;15.03;98.05
32083;BME280;18597;48.328;7.932;2022-08-24T03:32:39;99557.47;;;15.14;96.92
32083;BME280;18597;48.328;7.932;2022-08-24T03:35:06;99553.09;;;15.13;96.26
32083;BME280;18597;48.328;7.932;2022-08-24T03:37:32;99561.66;;;15.17;96.23
32083;BME280;18597;48.328;7.932;2022-08-24T03:39:58;99561.69;;;15.25;95.72
32083;BME280;18597;48.328;7.932;2022-08-24T03:42:24;99557.53;;;15.31;95.14
32083;BME280;18597;48.328;7.932;2022-08-24T03:44:50;99559.88;;;15.34;95.14
32083;BME280;18597;48.328;7.932;2022-08-24T03:47:16;99565.78;;;15.37;94.23
32083;BME280;18597;48.328;7.932;2022-08-24T03:49:44;99561.41;;;15.36;94.43
32083;BME280;18597;48.328;7.932;2022-08-24T03:52:10;99556.34;;;15.33;93.99
32083;BME280;18597;48.328;7.932;2022-08-24T03:54:36;99566.06;;;15.26;93.85
32083;BME280;18597;48.328;7.932;2022-08-24T03:57:02;99560.84;;;15.16;94.63
32083;BME280;18597;48.328;7.932;2022-08-24T03:59:28;99557.28;;;15.08;95.14
32083;BME280;18597;48.328;7.932;2022-08-24T04:01:54;99558.81;;;15.18;94.13
32083;BME280;18597;48.328;7.932;2022-08-24T04:04:21;99555.81;;;15.21;93.87
32083;BME280;18597;48.328;7.932;2022-08-24T04:06:47;99552.72;;;15.08;93.93
32083;BME280;18597;48.328;7.932;2022-08-24T04:09:14;99560.84;;;15.16;94.68
32083;BME280;18597;48.328;7.932;2022-08-24T04:11:40;99569.53;;;15.10;95.77
32083;BME280;18597;48.328;7.932;2022-08-24T04:14:11;99563.00;;;15.05;96.51
32083;BME280;18597;48.328;7.932;2022-08-24T04:16:37;99565.31;;;14.99;96.60
32083;BME280;18597;48.328;7.932;2022-08-24T04:19:04;99556.41;;;14.99;96.88
32083;BME280;18597;48.328;7.932;2022-08-24T04:21:33;99551.16;;;14.89;97.99
32083;BME280;18597;48.328;7.932;2022-08-24T04:24:01;99554.69;;;14.90;98.28
32083;BME280;18597;48.328;7.932;2022-08-24T04:26:29;99557.16;;;14.83;97.98
32083;BME280;18597;48.328;7.932;2022-08-24T04:28:57;99563.75;;;14.89;97.82
32083;BME280;18597;48.328;7.932;2022-08-24T04:31:23;99569.31;;;14.95;97.25
32083;BME280;18597;48.328;7.932;2022-08-24T04:33:51;99575.53;;;14.96;97.52
32083;BME280;18597;48.328;7.932;2022-08-24T04:36:20;99565.47;;;14.98;97.07
32083;BME280;18597;48.328;7.932;2022-08-24T04:38:46;99564.84;;;15.04;96.09
32083;BME280;18597;48.328;7.932;2022-08-24T04:41:14;99570.06;;;15.06;95.59
32083;BME280;18597;48.328;7.932;2022-08-24T04:43:41;99572.78;;;15.14;95.33
32083;BME280;18597;48.328;7.932;2022-08-24T04:46:12;99569.91;;;15.15;94.92
32083;BME280;18597;48.328;7.932;2022-08-24T04:48:41;99574.47;;;15.15;95.32
32083;BME280;18597;48.328;7.932;2022-08-24T04:51:09;99576.31;;;15.14;95.44
32083;BME280;18597;48.328;7.932;2022-08-24T04:53:36;99575.84;;;15.19;95.16
32083;BME280;18597;48.328;7.932;2022-08-24T04:56:07;99580.03;;;15.21;95.26
32083;BME280;18597;48.328;7.932;2022-08-24T04:58:34;99583.59;;;15.30;94.40
32083;BME280;18597;48.328;7.932;2022-08-24T05:01:00;99583.22;;;15.25;93.20
32083;BME280;18597;48.328;7.932;2022-08-24T05:03:26;99580.41;;;15.26;93.41
32083;BME280;18597;48.328;7.932;2022-08-24T05:05:53;99588.13;;;15.30;93.11
32083;BME280;18597;48.328;7.932;2022-08-24T05:08:19;99582.78;;;15.38;92.69
32083;BME280;18597;48.328;7.932;2022-08-24T05:10:47;99581.63;;;15.48;91.67
32083;BME280;18597;48.328;7.932;2022-08-24T05:13:14;99595.28;;;15.55;91.61
32083;BME280;18597;48.328;7.932;2022-08-24T05:15:45;99594.59;;;15.53;91.85
32083;BME280;18597;48.328;7.932;2022-08-24T05:18:12;99593.44;;;15.55;92.02
32083;BME280;18597;48.328;7.932;2022-08-24T05:20:40;99588.19;;;15.46;92.65
32083;BME280;18597;48.328;7.932;2022-08-24T05:23:07;99586.69;;;15.51;92.12
32083;BME280;18597;48.328;7.932;2022-08-24T05:25:33;99594.28;;;15.56;91.35
32083;BME280;18597;48.328;7.932;2022-08-24T05:27:59;99588.78;;;15.66;91.33
32083;BME280;18597;48.328;7.932;2022-08-24T05:30:25;99594.19;;;15.66;91.31
32083;BME280;18597;48.328;7.932;2022-08-24T05:32:51;99584.91;;;15.68;90.85
32083;BME280;18597;48.328;7.932;2022-08-24T05:35:17;99597.06;;;15.72;90.67
32083;BME280;18597;48.328;7.932;2022-08-24T05:37:43;99604.00;;;15.91;89.73
32083;BME280;18597;48.328;7.932;2022-08-24T05:40:13;99598.44;;;16.09;88.46
32083;BME280;18597;48.328;7.932;2022-08-24T05:42:39;99603.34;;;16.22;86.99
32083;BME280;18597;48.328;7.932;2022-08-24T05:45:06;99596.78;;;16.41;85.68
32083;BME280;18597;48.328;7.932;2022-08-24T05:47:33;99592.38;;;16.64;83.70
32083;BME280;18597;48.328;7.932;2022-08-24T05:50:00;99606.06;;;16.71;83.57
32083;BME280;18597;48.328;7.932;2022-08-24T05:52:26;99608.41;;;16.74;83.38
32083;BME280;18597;48.328;7.932;2022-08-24T05:54:56;99605.81;;;16.97;82.00
32083;BME280;18597;48.328;7.932;2022-08-24T05:57:24;99604.44;;;17.09;81.25
32083;BME280;18597;48.328;7.932;2022-08-24T05:59:51;99601.25;;;17.44;78.75
32083;BME280;18597;48.328;7.932;2022-08-24T06:02:18;99593.47;;;19.02;70.58
32083;BME280;18597;48.328;7.932;2022-08-24T06:04:45;99592.34;;;22.54;55.18
32083;BME280;18597;48.328;7.932;2022-08-24T06:07:13;99589.56;;;25.34;45.62
32083;BME280;18597;48.328;7.932;2022-08-24T06:09:39;99587.25;;;27.28;40.22
32083;BME280;18597;48.328;7.932;2022-08-24T06:12:07;99583.78;;;29.14;36.62
32083;BME280;18597;48.328;7.932;2022-08-24T06:14:34;99585.53;;;31.09;33.49
32083;BME280;18597;48.328;7.932;2022-08-24T06:17:04;99590.19;;;31.04;32.35
32083;BME280;18597;48.328;7.932;2022-08-24T06:19:30;99590.78;;;30.69;32.66
32083;BME280;18597;48.328;7.932;2022-08-24T06:21:57;99587.91;;;30.58;32.57
32083;BME280;18597;48.328;7.932;2022-08-24T06:24:24;99577.03;;;30.15;33.36
32083;BME280;18597;48.328;7.932;2022-08-24T06:27:12;99572.41;;;30.52;32.87
32083;BME280;18597;48.328;7.932;2022-08-24T06:29:48;99574.34;;;29.49;34.32
32083;BME280;18597;48.328;7.932;2022-08-24T06:32:14;99582.22;;;28.85;34.82
32083;BME280;18597;48.328;7.932;2022-08-24T06:34:40;99580.28;;;27.89;36.50
32083;BME280;18597;48.328;7.932;2022-08-24T06:37:06;99582.13;;;29.35;34.48
32083;BME280;18597;48.328;7.932;2022-08-24T06:39:31;99577.75;;;30.05;33.43
32083;BME280;18597;48.328;7.932;2022-08-24T06:41:58;99582.59;;;30.20;33.25
32083;BME280;18597;48.328;7.932;2022-08-24T06:44:24;99586.78;;;30.54;32.91
32083;BME280;18597;48.328;7.932;2022-08-24T06:46:50;99581.56;;;30.26;33.04
32083;BME280;18597;48.328;7.932;2022-08-24T06:49:17;99580.38;;;30.49;32.56
32083;BME280;18597;48.328;7.932;2022-08-24T06:51:44;99579.16;;;29.59;34.26
32083;BME280;18597;48.328;7.932;2022-08-24T06:54:10;99575.00;;;31.48;31.19
32083;BME280;18597;48.328;7.932;2022-08-24T06:56:37;99569.63;;;33.97;28.22
32083;BME280;18597;48.328;7.932;2022-08-24T06:59:04;99568.28;;;36.30;25.34
32083;BME280;18597;48.328;7.932;2022-08-24T07:01:30;99572.09;;;36.53;24.86
32083;BME280;18597;48.328;7.932;2022-08-24T07:03:56;99577.19;;;37.66;23.68
32083;BME280;18597;48.328;7.932;2022-08-24T07:06:23;99566.22;;;39.57;21.32
32083;BME280;18597;48.328;7.932;2022-08-24T07:08:50;99566.88;;;41.01;20.03
32083;BME280;18597;48.328;7.932;2022-08-24T07:11:17;99568.31;;;41.54;19.28
32083;BME280;18597;48.328;7.932;2022-08-24T07:13:45;99559.53;;;42.81;18.43
32083;BME280;18597;48.328;7.932;2022-08-24T07:16:13;99565.84;;;43.85;17.45
32083;BME280;18597;48.328;7.932;2022-08-24T07:18:39;99561.13;;;45.17;16.44
32083;BME280;18597;48.328;7.932;2022-08-24T07:21:05;99558.22;;;46.15;15.65
32083;BME280;18597;48.328;7.932;2022-08-24T07:23:31;99561.25;;;46.64;15.66
32083;BME280;18597;48.328;7.932;2022-08-24T07:26:09;99564.56;;;47.12;15.09
32083;BME280;18597;48.328;7.932;2022-08-24T07:28:37;99566.09;;;47.82;15.09
32083;BME280;18597;48.328;7.932;2022-08-24T07:31:05;99553.59;;;48.47;14.44
32083;BME280;18597;48.328;7.932;2022-08-24T07:33:31;99559.75;;;48.93;13.95
32083;BME280;18597;48.328;7.932;2022-08-24T07:35:58;99550.06;;;49.38;13.35
32083;BME280;18597;48.328;7.932;2022-08-24T07:38:24;99556.53;;;50.05;12.62
32083;BME280;18597;48.328;7.932;2022-08-24T07:40:51;99558.38;;;50.56;11.84
32083;BME280;18597;48.328;7.932;2022-08-24T07:43:18;99551.97;;;51.12;12.10
32083;BME280;18597;48.328;7.932;2022-08-24T07:45:47;99551.13;;;51.65;11.46
32083;BME280;18597;48.328;7.932;2022-08-24T07:48:14;99544.16;;;51.84;11.81
32083;BME280;18597;48.328;7.932;2022-08-24T07:50:40;99552.63;;;52.16;11.17
32083;BME280;18597;48.328;7.932;2022-08-24T07:53:06;99547.53;;;52.52;10.82
32083;BME280;18597;48.328;7.932;2022-08-24T07:55:32;99548.34;;;52.53;10.29
32083;BME280;18597;48.328;7.932;2022-08-24T07:57:58;99549.94;;;52.61;10.16
32083;BME280;18597;48.328;7.932;2022-08-24T08:00:24;99540.03;;;53.28;10.09
32083;BME280;18597;48.328;7.932;2022-08-24T08:02:50;99539.72;;;53.19;10.00
32083;BME280;18597;48.328;7.932;2022-08-24T08:05:20;99540.84;;;52.03;10.87
32083;BME280;18597;48.328;7.932;2022-08-24T08:07:48;99529.59;;;51.07;11.36
32083;BME280;18597;48.328;7.932;2022-08-24T08:10:14;99528.34;;;50.58;12.15
32083;BME280;18597;48.328;7.932;2022-08-24T08:12:40;99528.38;;;51.22;11.41
32083;BME280;18597;48.328;7.932;2022-08-24T08:15:08;99535.69;;;51.52;11.51
32083;BME280;18597;48.328;7.932;2022-08-24T08:17:36;99524.31;;;50.88;11.74
32083;BME280;18597;48.328;7.932;2022-08-24T08:20:06;99529.13;;;50.51;12.12
32083;BME280;18597;48.328;7.932;2022-08-24T08:22:33;99515.34;;;50.50;12.14
32083;BME280;18597;48.328;7.932;2022-08-24T08:25:18;99514.31;;;50.03;11.42
32083;BME280;18597;48.328;7.932;2022-08-24T08:27:45;99515.50;;;49.95;11.50
32083;BME280;18597;48.328;7.932;2022-08-24T08:30:12;99516.88;;;48.98;11.97
32083;BME280;18597;48.328;7.932;2022-08-24T08:32:38;99510.03;;;48.25;11.79
32083;BME280;18597;48.328;7.932;2022-08-24T08:35:04;99516.13;;;48.64;11.77
32083;BME280;18597;48.328;7.932;2022-08-24T08:37:30;99510.84;;;48.62;12.03
32083;BME280;18597;48.328;7.932;2022-08-24T08:39:56;99512.19;;;48.01;12.27
32083;BME280;18597;48.328;7.932;2022-08-24T08:45:55;99503.19;;;46.47;12.80
32083;BME280;18597;48.328;7.932;2022-08-24T08:49:09;99501.75;;;44.50;14.27
32083;BME280;18597;48.328;7.932;2022-08-24T09:03:23;99507.19;;;36.06;23.33
32083;BME280;18597;48.328;7.932;2022-08-24T09:12:30;99512.31;;;35.13;24.65
32083;BME280;18597;48.328;7.932;2022-08-24T09:18:12;99511.28;;;34.80;26.41
32083;BME280;18597;48.328;7.932;2022-08-24T09:27:10;99501.94;;;34.37;26.64
32083;BME280;18597;48.328;7.932;2022-08-24T09:30:15;99500.28;;;34.41;26.96
32083;BME280;18597;48.328;7.932;2022-08-24T09:33:05;99502.78;;;34.42;26.06
32083;BME280;18597;48.328;7.932;2022-08-24T09:36:17;99498.84;;;34.48;26.11
32083;BME280;18597;48.328;7.932;2022-08-24T09:39:20;99502.53;;;34.34;26.54
32083;BME280;18597;48.328;7.932;2022-08-24T09:47:37;99497.03;;;34.92;25.04
32083;BME280;18597;48.328;7.932;2022-08-24T10:06:25;99482.06;;;34.88;24.29
32083;BME280;18597;48.328;7.932;2022-08-24T10:09:19;99472.91;;;34.87;24.45
32083;BME280;18597;48.328;7.932;2022-08-24T10:15:01;99467.19;;;35.02;24.25
32083;BME280;18597;48.328;7.932;2022-08-24T10:18:14;99465.72;;;35.10;24.75
32083;BME280;18597;48.328;7.932;2022-08-24T10:21:12;99453.31;;;35.02;24.02
32083;BME280;18597;48.328;7.932;2022-08-24T10:27:19;99448.47;;;35.32;25.15
32083;BME280;18597;48.328;7.932;2022-08-24T10:33:26;99445.91;;;35.36;25.24
32083;BME280;18597;48.328;7.932;2022-08-24T10:36:38;99437.13;;;35.10;26.92
32083;BME280;18597;48.328;7.932;2022-08-24T10:42:53;99431.50;;;35.34;25.74
32083;BME280;18597;48.328;7.932;2022-08-24T10:46:33;99429.44;;;35.63;25.37
32083;BME280;18597;48.328;7.932;2022-08-24T10:49:47;99431.56;;;35.52;24.99
32083;BME280;18597;48.328;7.932;2022-08-24T10:53:02;99421.88;;;35.50;25.12
32083;BME280;18597;48.328;7.932;2022-08-24T10:55:33;99426.97;;;35.43;25.24
32083;BME280;18597;48.328;7.932;2022-08-24T11:04:10;99417.28;;;35.40;25.15
32083;BME280;18597;48.328;7.932;2022-08-24T11:07:05;99419.06;;;35.31;24.43
32083;BME280;18597;48.328;7.932;2022-08-24T11:09:47;99426.53;;;35.12;24.76
32083;BME280;18597;48.328;7.932;2022-08-24T11:12:28;99415.13;;;34.94;22.94
32083;BME280;18597;48.328;7.932;2022-08-24T11:14:59;99419.84;;;35.13;23.28
32083;BME280;18597;48.328;7.932;2022-08-24T11:17:29;99414.13;;;35.47;21.42
32083;BME280;18597;48.328;7.932;2022-08-24T11:19:56;99410.59;;;35.22;21.31
32083;BME280;18597;48.328;7.932;2022-08-24T11:23:03;99402.53;;;35.40;20.64
32083;BME280;18597;48.328;7.932;2022-08-24T11:25:32;99405.50;;;35.67;22.23
32083;BME280;18597;48.328;7.932;2022-08-24T11:28:06;99402.47;;;35.82;22.12
32083;BME280;18597;48.328;7.932;2022-08-24T11:30:42;99414.03;;;35.71;20.51
32083;BME280;18597;48.328;7.932;2022-08-24T11:33:32;99402.28;;;35.41;21.17
32083;BME280;18597;48.328;7.932;2022-08-24T11:36:01;99405.56;;;35.43;20.88
32083;BME280;18597;48.328;7.932;2022-08-24T11:38:31;99405.19;;;35.31;20.38
32083;BME280;18597;48.328;7.932;2022-08-24T11:41:25;99400.00;;;35.62;20.24
32083;BME280;18597;48.328;7.932;2022-08-24T11:50:52;99407.72;;;35.65;18.80
32083;BME280;18597;48.328;7.932;2022-08-24T11:54:02;99396.75;;;35.74;18.16
32083;BME280;18597;48.328;7.932;2022-08-24T11:57:04;99398.09;;;35.20;18.57
32083;BME280;18597;48.328;7.932;2022-08-24T12:00:10;99396.09;;;35.63;18.44
32083;BME280;18597;48.328;7.932;2022-08-24T12:05:57;99394.31;;;34.44;17.52
32083;BME280;18597;48.328;7.932;2022-08-24T12:08:41;99394.69;;;34.32;18.40
32083;BME280;18597;48.328;7.932;2022-08-24T12:11:38;99396.41;;;33.60;19.42
32083;BME280;18597;48.328;7.932;2022-08-24T12:14:26;99398.81;;;33.27;19.85
32083;BME280;18597;48.328;7.932;2022-08-24T12:17:34;99391.75;;;34.24;19.19
32083;BME280;18597;48.328;7.932;2022-08-24T12:19:54;99389.53;;;34.97;18.89
32083;BME280;18597;48.328;7.932;2022-08-24T12:22:21;99382.81;;;34.80;18.58
32083;BME280;18597;48.328;7.932;2022-08-24T12:24:53;99390.31;;;34.26;19.34
32083;BME280;18597;48.328;7.932;2022-08-24T12:27:27;99378.00;;;35.09;18.89
32083;BME280;18597;48.328;7.932;2022-08-24T12:30:06;99378.44;;;35.73;18.42
32083;BME280;18597;48.328;7.932;2022-08-24T12:32:44;99382.34;;;35.72;17.42
32083;BME280;18597;48.328;7.932;2022-08-24T12:35:53;99399.34;;;34.42;19.04
32083;BME280;18597;48.328;7.932;2022-08-24T12:38:22;99383.81;;;34.41;19.59
32083;BME280;18597;48.328;7.932;2022-08-24T12:41:07;99382.00;;;35.22;18.64
32083;BME280;18597;48.328;7.932;2022-08-24T12:43:51;99376.53;;;35.54;18.27
32083;BME280;18597;48.328;7.932;2022-08-24T12:46:22;99373.66;;;35.60;18.64
32083;BME280;18597;48.328;7.932;2022-08-24T12:49:13;99365.34;;;35.60;18.59
32083;BME280;18597;48.328;7.932;2022-08-24T12:55:15;99364.25;;;36.07;17.88
32083;BME280;18597;48.328;7.932;2022-08-24T12:58:04;99386.19;;;35.19;19.00
32083;BME280;18597;48.328;7.932;2022-08-24T13:00:43;99361.94;;;35.63;18.57
32083;BME280;18597;48.328;7.932;2022-08-24T13:03:33;99360.66;;;36.06;17.91
32083;BME280;18597;48.328;7.932;2022-08-24T13:06:06;99362.94;;;35.15;18.55
32083;BME280;18597;48.328;7.932;2022-08-24T13:08:38;99357.28;;;35.58;18.42
32083;BME280;18597;48.328;7.932;2022-08-24T13:11:14;99359.91;;;36.01;18.04
32083;BME280;18597;48.328;7.932;2022-08-24T13:24:59;99349.94;;;35.67;17.69
32083;BME280;18597;48.328;7.932;2022-08-24T13:30:25;99348.91;;;35.77;17.08
32083;BME280;18597;48.328;7.932;2022-08-24T13:33:04;99332.50;;;34.86;17.11
32083;BME280;18597;48.328;7.932;2022-08-24T13:41:44;99328.63;;;36.09;16.26
32083;BME280;18597;48.328;7.932;2022-08-24T13:44:26;99338.31;;;35.09;17.05
32083;BME280;18597;48.328;7.932;2022-08-24T13:47:31;99324.38;;;34.90;17.08
32083;BME280;18597;48.328;7.932;2022-08-24T13:56:44;99317.53;;;35.76;16.55
32083;BME280;18597;48.328;7.932;2022-08-24T13:59:57;99329.75;;;34.62;17.10
32083;BME280;18597;48.328;7.932;2022-08-24T14:03:25;99317.94;;;34.28;18.13
32083;BME280;18597;48.328;7.932;2022-08-24T14:09:11;99324.97;;;34.87;16.76
32083;BME280;18597;48.328;7.932;2022-08-24T14:17:28;99310.31;;;35.24;15.67
32083;BME280;18597;48.328;7.932;2022-08-24T14:23:54;99312.19;;;35.47;16.17
32083;BME280;18597;48.328;7.932;2022-08-24T14:29:27;99318.47;;;35.34;15.91
32083;BME280;18597;48.328;7.932;2022-08-24T14:35:08;99307.97;;;35.31;15.70
32083;BME280;18597;48.328;7.932;2022-08-24T14:41:09;99301.84;;;35.99;15.40
32083;BME280;18597;48.328;7.932;2022-08-24T14:46:45;99308.34;;;35.43;14.79
32083;BME280;18597;48.328;7.932;2022-08-24T14:52:41;99305.03;;;35.60;15.29
32083;BME280;18597;48.328;7.932;2022-08-24T14:55:26;99309.91;;;35.82;15.65
32083;BME280;18597;48.328;7.932;2022-08-24T14:58:23;99303.00;;;35.28;16.37
32083;BME280;18597;48.328;7.932;2022-08-24T15:01:27;99302.88;;;35.38;16.73
32083;BME280;18597;48.328;7.932;2022-08-24T15:04:40;99306.00;;;35.50;16.18
32083;BME280;18597;48.328;7.932;2022-08-24T15:07:33;99299.75;;;35.07;16.00
32083;BME280;18597;48.328;7.932;2022-08-24T15:10:10;99294.53;;;35.38;16.09
32083;BME280;18597;48.328;7.932;2022-08-24T15:12:58;99302.47;;;34.69;17.54
32083;BME280;18597;48.328;7.932;2022-08-24T15:18:34;99296.63;;;34.71;17.65
32083;BME280;18597;48.328;7.932;2022-08-24T15:24:45;99298.25;;;34.96;16.70
32083;BME280;18597;48.328;7.932;2022-08-24T15:28:07;99294.44;;;34.92;16.81
32083;BME280;18597;48.328;7.932;2022-08-24T15:30:29;99302.34;;;34.08;17.60
32083;BME280;18597;48.328;7.932;2022-08-24T15:33:14;99305.03;;;33.55;17.90
32083;BME280;18597;48.328;7.932;2022-08-24T15:35:45;99301.88;;;33.72;18.00
32083;BME280;18597;48.328;7.932;2022-08-24T15:38:23;99283.53;;;34.05;17.65
32083;BME280;18597;48.328;7.932;2022-08-24T15:41:19;99287.13;;;34.53;17.71
32083;BME280;18597;48.328;7.932;2022-08-24T15:44:08;99284.69;;;34.70;16.97
32083;BME280;18597;48.328;7.932;2022-08-24T15:46:42;99285.63;;;34.85;16.65
32083;BME280;18597;48.328;7.932;2022-08-24T15:52:09;99291.69;;;35.24;16.21
32083;BME280;18597;48.328;7.932;2022-08-24T15:54:59;99281.47;;;34.63;15.92
32083;BME280;18597;48.328;7.932;2022-08-24T15:57:30;99293.16;;;34.12;17.19
32083;BME280;18597;48.328;7.932;2022-08-24T16:00:15;99291.03;;;33.02;17.94
32083;BME280;18597;48.328;7.932;2022-08-24T16:03:24;99295.97;;;32.55;18.95
32083;BME280;18597;48.328;7.932;2022-08-24T16:05:55;99288.56;;;32.41;19.26
32083;BME280;18597;48.328;7.932;2022-08-24T16:08:22;99288.22;;;32.57;19.13